»·PEaware :: N500LL KASE-KBZN

N500LL :: KASE-KBZN

FLIGHT INFORMATION

Flight Status: Arrived
Operator: Privately registered:
United States
More flights under this callsign
Pilot: Andy P. (22680)
Aircraft: GATES LEARJET LEARJET 35/36
(LJ35)
More flights by this aircraft type
Origin: KASE Aspen-Pitkin Co/Sardy
United States
Destination: KBZN Gallatin
United States
More flights between these airports :: More routes between these airports
Route: +LINDZ9 EKR OCS DNW
File this flight plan on PilotEdge
Remarks:
Altitude:
(Current/Filed)
38,000ft
Speed:
(Current/Filed)
465kts
Departed: 20-Oct-19 05:24 PM
Arrived: 20-Oct-19 06:43 PM
Distance/Time
Traveled:
436nm/1:19
Distance/Time
To Go:
Arrived

Flight Plot

Page will automatically refresh every two minutes.

Flight plan parsing failed; only flown route is shown


Map Options




Map Legend


Flown Route
Filed Route
Departure Airport
Arrival Airport
Navaid (VOR, NDB)
Fix

Horizontal Profiles

Position Reports

Time Latitude Longitude Heading Altitude Ground
Speed
20-Oct-19 16:56 39.222341 -106.866786 251 7823ft 0kts
20-Oct-19 16:57 39.222341 -106.866786 251 7823ft 0kts
20-Oct-19 16:58 39.222341 -106.866786 251 7823ft 0kts
20-Oct-19 16:59 39.222341 -106.866786 251 7823ft 0kts
20-Oct-19 17:00 39.222341 -106.866786 251 7823ft 0kts
20-Oct-19 17:01 39.222341 -106.866786 251 7823ft 0kts
20-Oct-19 17:02 39.222341 -106.866786 251 7823ft 0kts
20-Oct-19 17:03 39.222341 -106.866786 251 7823ft 0kts
20-Oct-19 17:04 39.222341 -106.866786 251 7823ft 0kts
20-Oct-19 17:05 39.222341 -106.866786 251 7823ft 0kts
20-Oct-19 17:06 39.222341 -106.866786 251 7823ft 0kts
20-Oct-19 17:07 39.222341 -106.866786 251 7823ft 0kts
20-Oct-19 17:08 39.222341 -106.866786 251 7823ft 0kts
20-Oct-19 17:09 39.222341 -106.866786 251 7823ft 0kts
20-Oct-19 17:10 39.222341 -106.866786 251 7823ft 0kts
20-Oct-19 17:11 39.222341 -106.866786 251 7823ft 0kts
20-Oct-19 17:12 39.222341 -106.866786 251 7823ft 0kts
20-Oct-19 17:13 39.222341 -106.866786 251 7823ft 0kts
20-Oct-19 17:14 39.222341 -106.866786 251 7823ft 0kts
20-Oct-19 17:15 39.222341 -106.866786 251 7823ft 0kts
20-Oct-19 17:16 39.222341 -106.866786 251 7823ft 0kts
20-Oct-19 17:17 39.222341 -106.866786 251 7823ft 0kts
20-Oct-19 17:18 39.222341 -106.866786 251 7823ft 0kts
20-Oct-19 17:19 39.222341 -106.866786 251 7823ft 0kts
20-Oct-19 17:20 39.222289 -106.866936 232 7823ft 5kts
20-Oct-19 17:21 39.217922 -106.865154 159 7823ft 25kts
20-Oct-19 17:22 39.211842 -106.862704 238 7823ft 14kts
20-Oct-19 17:23 39.235307 -106.874388 341 8186ft 200kts
20-Oct-19 17:24 39.292021 -106.905683 299 12217ft 224kts
20-Oct-19 17:25 39.308051 -106.988226 285 14764ft 264kts
20-Oct-19 17:26 39.329285 -107.085517 310 16700ft 303kts
20-Oct-19 17:27 39.381225 -107.161356 286 19877ft 289kts
20-Oct-19 17:28 39.366036 -107.268778 268 22446ft 312kts
20-Oct-19 17:29 39.345528 -107.381408 263 25386ft 329kts
20-Oct-19 17:30 39.322650 -107.497231 265 28133ft 338kts
20-Oct-19 17:31 39.330679 -107.608959 306 30681ft 302kts
20-Oct-19 17:32 39.397156 -107.667199 339 33052ft 298kts
20-Oct-19 17:33 39.475997 -107.698761 338 35054ft 297kts
20-Oct-19 17:34 39.555712 -107.730116 339 36657ft 301kts
20-Oct-19 17:35 39.636759 -107.760697 338 37992ft 306kts
20-Oct-19 17:36 39.723084 -107.793491 339 38163ft 341kts
20-Oct-19 17:37 39.818632 -107.829843 339 38159ft 373kts
20-Oct-19 17:38 39.921124 -107.868950 339 38157ft 395kts
20-Oct-19 17:39 40.028837 -107.910188 339 38156ft 409kts
20-Oct-19 17:40 40.131742 -107.969957 329 38156ft 402kts
20-Oct-19 17:41 40.229831 -108.038600 329 38155ft 399kts
20-Oct-19 17:42 40.327629 -108.107300 329 38153ft 398kts
20-Oct-19 17:43 40.425481 -108.176268 329 38153ft 398kts
20-Oct-19 17:44 40.522849 -108.245122 329 38148ft 397kts
20-Oct-19 17:45 40.619934 -108.314009 329 38146ft 396kts
20-Oct-19 17:46 40.716659 -108.382870 329 38146ft 394kts
20-Oct-19 17:47 40.813001 -108.451685 330 38143ft 393kts
20-Oct-19 17:48 40.909032 -108.520511 329 38142ft 392kts
20-Oct-19 17:49 41.004863 -108.589412 329 38140ft 392kts
20-Oct-19 17:50 41.100710 -108.658564 329 38138ft 392kts
20-Oct-19 17:51 41.196430 -108.727859 330 38138ft 391kts
20-Oct-19 17:52 41.291767 -108.797107 329 38138ft 390kts
20-Oct-19 17:53 41.386900 -108.866439 330 38138ft 389kts
20-Oct-19 17:54 41.481814 -108.935843 330 38138ft 389kts
20-Oct-19 17:55 41.576721 -109.004931 331 38138ft 388kts
20-Oct-19 17:56 41.675617 -109.063506 334 38138ft 387kts
20-Oct-19 17:57 41.774446 -109.120125 334 38138ft 386kts
20-Oct-19 17:58 41.873197 -109.176638 334 38139ft 385kts
20-Oct-19 18:00 41.971514 -109.233046 334 38139ft 383kts
20-Oct-19 18:01 42.069635 -109.289512 334 38136ft 384kts
20-Oct-19 18:02 42.167887 -109.346259 334 38133ft 384kts
20-Oct-19 18:03 42.266111 -109.403178 334 38130ft 383kts
20-Oct-19 18:04 42.364099 -109.460153 334 38130ft 383kts
20-Oct-19 18:05 42.462046 -109.517302 334 38130ft 383kts
20-Oct-19 18:06 42.560026 -109.574664 334 38130ft 383kts
20-Oct-19 18:07 42.658001 -109.632220 334 38132ft 384kts
20-Oct-19 18:08 42.756032 -109.690009 334 38137ft 384kts
20-Oct-19 18:09 42.854255 -109.748113 334 38139ft 385kts
20-Oct-19 18:10 42.952986 -109.806721 334 38139ft 387kts
20-Oct-19 18:11 43.051763 -109.865559 334 38139ft 388kts
20-Oct-19 18:12 43.151013 -109.924890 334 38141ft 391kts
20-Oct-19 18:13 43.251370 -109.985098 334 38140ft 393kts
20-Oct-19 18:14 43.351274 -110.045251 334 38141ft 390kts
20-Oct-19 18:15 43.450324 -110.105112 334 38140ft 388kts
20-Oct-19 18:16 43.549411 -110.165208 334 38140ft 389kts
20-Oct-19 18:16 43.632199 -110.215588 334 38138ft 390kts
20-Oct-19 18:18 43.748269 -110.286472 334 38137ft 392kts
20-Oct-19 18:19 43.849630 -110.343493 339 38115ft 395kts
20-Oct-19 18:20 43.954996 -110.386582 340 38026ft 393kts
20-Oct-19 18:20 44.043582 -110.422687 340 36348ft 398kts
20-Oct-19 18:21 44.148598 -110.465500 340 34585ft 390kts
20-Oct-19 18:23 44.269043 -110.514770 340 32524ft 383kts
20-Oct-19 18:23 44.354293 -110.549770 340 31070ft 383kts
20-Oct-19 18:24 44.456606 -110.592035 340 29308ft 385kts
20-Oct-19 18:25 44.559885 -110.634636 340 27538ft 391kts
20-Oct-19 18:26 44.666258 -110.678796 340 25727ft 406kts
20-Oct-19 18:27 44.776554 -110.724750 341 23839ft 419kts
20-Oct-19 18:28 44.888272 -110.771458 341 21924ft 414kts
20-Oct-19 18:29 44.997724 -110.817416 341 20050ft 408kts
20-Oct-19 18:30 45.106151 -110.863159 341 18185ft 400kts
20-Oct-19 18:31 45.209896 -110.907070 341 16408ft 384kts
20-Oct-19 18:32 45.312295 -110.950594 341 14656ft 384kts
20-Oct-19 18:33 45.415216 -110.994464 340 12905ft 374kts
20-Oct-19 18:34 45.500835 -111.034849 328 11745ft 288kts
20-Oct-19 18:35 45.561117 -111.090926 322 11015ft 260kts
20-Oct-19 18:36 45.622081 -111.151445 322 10163ft 265kts
20-Oct-19 18:37 45.674045 -111.202112 324 9590ft 211kts
20-Oct-19 18:38 45.730187 -111.241213 338 7584ft 210kts
20-Oct-19 18:39 45.776921 -111.257783 355 5942ft 152kts
20-Oct-19 18:40 45.804632 -111.226032 60 4976ft 131kts
20-Oct-19 18:41 45.799247 -111.182647 137 4658ft 125kts
20-Oct-19 18:42 45.780509 -111.155850 135 4474ft 32kts
20-Oct-19 18:43 45.777017 -111.155119 138 4474ft 12kts
20-Oct-19 18:44 45.773285 -111.152553 132 4474ft 0kts
20-Oct-19 18:45 45.773284 -111.152552 132 4474ft 0kts

Navigation Log

Ident Type
Flight plan parsing failed, navigation log unavailable